Relevés horaires Beauvechain (Belgique)


Relevés horaires à Beauvechain - Lundi 29 Juin 2020
Heure UTC1 Température [°C] Vent [km/h] Hum. [%] Pres.4 [hPa] Visi. [Km] Nébu. [octa] Préc.5 [mm] Cond.
2m. Res. Ros. Dir.2 Vit. Moy. Raf.3
23:00 13.8 13.8 6.4 NNO 0.0 -- 0.0 61 1012.5(-0.1/3h) 20 -- -- --
22:00 14.3 14.3 6.5 NNO 0.0 -- 0.0 59 1012.6(0.3/3h) 20 -- -- --
21:00 14.8 14.8 6.7 NNO 0.0 -- 0.0 58 1012.7(0.5/3h) 20 -- -- --
20:00 15.6 15.6 7.4 NNO 0.0 -- 0.0 58 1012.5(0.0/3h) 20 -- -- --
19:00 16.9 16.9 7.6 NNO 0.0 -- 0.0 54 1012.1(-0.3/3h) 20 -- -- --
18:00 18.5 18.5 7.0 NNO 0.0 -- 0.0 47 1012.1(-0.1/3h) 20 -- -- --
17:00 18.8 18.8 6.8 NNO 0.0 -- 0.0 46 1012.2(-0.3/3h) 20 -- -- --
16:00 18.6 18.6 7.0 OSO 13.0 -- 0.0 47 1012.3(-0.6/3h) 20 6/8 -- --
15:00 18.8 18.8 6.0 OSO 14.8 -- 0.0 43 1012.2(-0.7/3h) 20 5/8 -- --
14:00 19.5 19.5 6.8 OSO 14.8 -- 0.0 44 1012.6(-0.4/3h) 20 6/8 -- --
13:00 17.8 17.5 7.0 OSO 14.8 -- 0.0 49 1013(-0.2/3h) 20 6/8 -- --
12:00 17.9 17.5 7.0 OSO 16.7 -- 0.0 49 1013.1(0.0/3h) 20 6/8 -- --
11:00 18.1 17.9 5.9 OSO 14.8 -- 0.0 45 1013.2(0.1/3h) 20 6/8 -- --
10:00 16.5 16.1 6.3 OSO 13.0 -- 0.0 51 1013.2(0.3/3h) 20 6/8 -- --
09:00 16.4 16.2 8.3 OSO 11.1 -- 0.0 59 1013.2(0.3/3h) 20 6/8 -- --
08:00 15.3 15.1 9.3 OSO 9.3 -- 0.0 67 1013.1(0.1/3h) 20 5/8 -- --
07:00 15.0 14.7 10.4 SO 9.3 -- 0.0 74 1013(0.3/3h) 20 5/8 -- --
06:00 13.6 13.6 10.6 SO 5.6 -- 0.0 82 1013.1(0.2/3h) 20 3/8 0.2/12h
--
05:00 12.6 12.6 10.5 NNO 0.0 -- 0.0 87 1013(0.0/3h) 20 -- -- NA
04:00 12.1 12.1 9.3 NNO 0.0 -- 0.0 83 1012.8(-0.8/3h) 20 -- -- NA
03:00 13.7 13.7 8.5 NNO 0.0 -- 0.0 71 1012.8(-0.8/3h) 20 -- -- NA
02:00 13.7 13.7 8.5 NNO 0.0 -- 0.0 71 1013(-0.5/3h) 20 -- -- NA
01:00 13.6 13.6 8.0 NNO 0.0 -- 0.0 69 1013.6(0.0/3h) 20 -- -- --
00:00 13.6 13.6 7.7 NNO 0.0 -- 0.0 67 1013.7(-0.3/3h) 20 -- -- --

1 Coordinated Universal Time. Actuellement il est 12:00 locale et 10:00 UTC.

2 Le vent souffle depuis la direction indiquée vers la direction oposée.

3 Les rafales max. sont disponible 40 min après l'heure du relevé.

4 Pour les stations d'altitude (plus de 600m) le géopotentiel du niveau le plus proche de la pression obligatoire est indiqué.

5 Les stations disposant d'un diffuseur peuvent indiquer "trace". Cela signifie que des précipitations ont touchés le sol mais que la quantité est inférieure à 0.1 mm.

Récapitulatif de la journée
Température [°C] Vent [km/h] Ensoleillement4 [h] Precipitations totale5 [mm] Pression [Hpa]
Min1 Max.2 Moy.3 Max. Min Max.
12.0 20.3 0 0.0 0 h 0 min 0 1012.1 1013.7

1 Température minimale relevée entre 18:00 UTC la veille et 18:00 UTC le jour donné.

2 Température maximale relevée entre 06:00 UTC le jour donné et 06:00 UTC le lendemain.

3 Vent moyen de la journée basé sur les relevés horaires.

4 Ensoleillement en heures relevé entre 06:00 UTC la veille et 06:00 UTC le jour donné.

5 Précipitations totales tombées entre 06:00 UTC la jour donné et 06:00 UTC le lendemain.

Graphiques horaires